< < Back
Terminal Aerodrome Forecast


Current Version              Previous Versions:   1  2  3  4  5  6  7  8  9  

Terminal Aerodrome Forecast

477
FTUS44 KMRX 301125
TAFTYS
TAF
KTYS 301125Z 3012/3112 00000KT 5SM BR FEW002
     FM301300 01004KT P6SM FEW040
     FM310000 VRB02KT P6SM SCT200
     FM310900 00000KT P6SM BKN100=

Latest METAR

699
SAUS80 KWBC 301400
MTRTYS
METAR KTYS 301353Z 00000KT 10SM CLR 07/06 A3012 RMK AO2 SLP200
T00720056


USA.gov is the U.S. government's official web portal to all federal, state and local government web resources and services.